Time;durP1;ratioP1;P1;durP2;ratioP2;P2;SDS_P1;SDS_P2;PMS_P1;PMS_P2;Temp;Humidity;BMP_temperature;BMP_pressure;BME280_temperature;BME280_humidity;BME280_pressure;Samples;Min_cycle;Max_cycle;Signal;HPM_P1;HPM_P2
2022/07/12 00:00:53;;;;;;;5.30;2.60;;;;;;;12.77;65.72;99099.87;105832;1278;99130;-66
2022/07/12 00:03:21;;;;;;;7.80;2.20;;;;;;;12.76;65.70;99098.88;105845;1279;108372;-66
2022/07/12 00:05:58;;;;;;;6.80;2.20;;;;;;;12.75;65.81;99098.64;105860;1279;99323;-66
2022/07/12 00:08:30;;;;;;;7.30;2.50;;;;;;;12.73;65.95;99096.96;105927;1279;99352;-66
2022/07/12 00:10:58;;;;;;;8.20;2.50;;;;;;;12.74;65.82;99102.77;105857;1279;112230;-64
2022/07/12 00:13:30;;;;;;;6.80;2.50;;;;;;;12.74;65.91;99095.50;105931;1277;99090;-65
2022/07/12 00:15:59;;;;;;;4.90;2.50;;;;;;;12.73;65.93;99088.61;105941;1279;108153;-67
2022/07/12 00:18:31;;;;;;;5.10;2.10;;;;;;;12.70;66.02;99085.64;105924;1279;99307;-64
2022/07/12 00:21:02;;;;;;;7.30;2.80;;;;;;;12.70;66.01;99087.85;105891;1279;96604;-67
2022/07/12 00:23:39;;;;;;;3.80;2.20;;;;;;;12.68;65.99;99086.59;105895;1279;112749;-68
2022/07/12 00:26:06;;;;;;;6.00;2.60;;;;;;;12.66;65.93;99087.92;105919;1279;99308;-67
2022/07/12 00:28:34;;;;;;;6.00;2.40;;;;;;;12.63;65.90;99088.02;105888;1279;108365;-67
2022/07/12 00:31:04;;;;;;;3.80;2.30;;;;;;;12.59;66.24;99091.32;105785;1279;99103;-68
2022/07/12 00:33:32;;;;;;;7.50;2.60;;;;;;;12.61;66.18;99097.63;105451;1282;96736;-67
2022/07/12 00:36:08;;;;;;;6.10;2.40;;;;;;;12.62;66.36;99091.47;105759;1281;112702;-68
2022/07/12 00:38:36;;;;;;;6.00;2.80;;;;;;;12.64;66.36;99097.50;105725;1281;99358;-68
2022/07/12 00:41:06;;;;;;;7.80;2.80;;;;;;;12.64;66.34;99099.70;105690;1281;108462;-68
2022/07/12 00:43:38;;;;;;;5.00;2.40;;;;;;;12.62;66.24;99098.05;105717;1281;99356;-69
2022/07/12 00:46:14;;;;;;;4.10;2.20;;;;;;;12.56;66.27;99098.50;105752;1281;96656;-69
2022/07/12 00:48:42;;;;;;;5.30;2.80;;;;;;;12.54;66.35;99096.95;105848;1281;112717;-69
2022/07/12 00:51:10;;;;;;;4.70;2.80;;;;;;;12.53;66.31;99100.71;105768;1281;97719;-68
2022/07/12 00:53:40;;;;;;;5.70;2.70;;;;;;;12.52;66.32;99096.54;105709;1281;108076;-68
2022/07/12 00:56:12;;;;;;;6.90;2.80;;;;;;;12.52;66.48;99094.94;105694;1281;99348;-68
2022/07/12 00:58:42;;;;;;;6.20;2.20;;;;;;;12.48;66.34;99098.05;105724;1281;99244;-70
2022/07/12 01:01:11;;;;;;;7.10;2.70;;;;;;;12.46;66.47;99096.98;105717;1281;113329;-68
2022/07/12 01:03:44;;;;;;;6.50;2.50;;;;;;;12.46;66.46;99091.13;105727;1281;99425;-70
2022/07/12 01:06:12;;;;;;;3.80;2.20;;;;;;;12.44;66.69;99093.19;105693;1281;108364;-69
2022/07/12 01:08:44;;;;;;;6.30;2.70;;;;;;;12.45;66.60;99093.52;105723;1281;99236;-70
2022/07/12 01:11:16;;;;;;;5.90;2.30;;;;;;;12.47;66.75;99094.77;105750;1281;99343;-70
2022/07/12 01:13:51;;;;;;;5.30;2.30;;;;;;;12.49;66.63;99093.05;105725;1281;112749;-69
2022/07/12 01:16:25;;;;;;;4.80;2.20;;;;;;;12.46;66.74;99093.92;105744;1281;99923;-68
2022/07/12 01:18:57;;;;;;;;;;;;;;;12.46;66.85;99094.84;105783;1281;107835;-70
2022/07/12 01:21:32;;;;;;;5.00;2.90;;;;;;;12.44;66.94;99097.70;105726;1281;99802;-69
2022/07/12 01:24:06;;;;;;;5.30;2.90;;;;;;;12.45;66.82;99098.73;105749;1281;100056;-68
2022/07/12 01:26:35;;;;;;;5.10;2.60;;;;;;;12.46;67.00;99103.05;105754;1281;112737;-69
2022/07/12 01:29:09;;;;;;;6.60;2.50;;;;;;;12.47;66.91;99099.05;105727;1281;99246;-69
2022/07/12 01:31:37;;;;;;;10.50;2.90;;;;;;;12.46;66.97;99097.20;105872;1279;108474;-70
2022/07/12 01:34:10;;;;;;;5.20;2.50;;;;;;;12.46;67.10;99096.84;105873;1279;99313;-69
2022/07/12 01:36:43;;;;;;;4.60;2.50;;;;;;;12.45;67.11;99095.30;105781;1279;99224;-70
2022/07/12 01:39:11;;;;;;;2.90;2.00;;;;;;;12.43;67.09;99096.70;105844;1279;113384;-69
2022/07/12 01:41:45;;;;;;;4.90;2.50;;;;;;;12.41;67.03;99095.27;105908;1279;99256;-71
2022/07/12 01:44:12;;;;;;;4.80;2.70;;;;;;;12.40;67.17;99095.36;105933;1278;108350;-70
2022/07/12 01:46:40;;;;;;;5.90;2.70;;;;;;;12.39;67.12;99091.20;105766;1279;100015;-69
2022/07/12 01:49:12;;;;;;;5.80;2.30;;;;;;;12.38;67.26;99087.49;105904;1278;96627;-71
2022/07/12 01:51:40;;;;;;;8.70;2.70;;;;;;;12.40;67.39;99086.81;105852;1279;113269;-70
2022/07/12 01:54:10;;;;;;;7.40;3.00;;;;;;;12.41;67.24;99089.02;105846;1279;99309;-69
2022/07/12 01:56:45;;;;;;;8.00;2.60;;;;;;;12.41;67.39;99082.71;105877;1279;108328;-69
2022/07/12 01:59:18;;;;;;;6.80;2.60;;;;;;;12.40;67.53;99087.20;105834;1279;100393;-70
2022/07/12 02:01:50;;;;;;;5.00;2.50;;;;;;;12.40;67.52;99089.11;105868;1279;99219;-70
2022/07/12 02:04:20;;;;;;;7.50;2.70;;;;;;;12.38;67.47;99091.06;105858;1279;113048;-69
2022/07/12 02:06:54;;;;;;;5.00;2.50;;;;;;;12.38;67.47;99086.62;105778;1279;99446;-70
2022/07/12 02:09:26;;;;;;;8.30;3.30;;;;;;;12.39;67.65;99085.48;105845;1279;106077;-70
2022/07/12 02:11:58;;;;;;;3.40;2.00;;;;;;;12.41;67.56;99084.48;105890;1279;99470;-70
2022/07/12 02:14:30;;;;;;;4.40;2.90;;;;;;;12.41;67.69;99082.16;105945;1279;99341;-69
2022/07/12 02:16:58;;;;;;;8.60;3.10;;;;;;;12.38;67.59;99081.42;105978;1279;112767;-70
2022/07/12 02:19:26;;;;;;;3.70;2.30;;;;;;;12.38;67.86;99079.88;105850;1279;99261;-70
2022/07/12 02:22:01;;;;;;;7.50;3.10;;;;;;;12.40;67.83;99079.21;105779;1279;108892;-69
2022/07/12 02:24:29;;;;;;;7.20;3.00;;;;;;;12.44;67.68;99082.91;105793;1279;99136;-70
2022/07/12 02:27:04;;;;;;;8.60;2.90;;;;;;;12.44;67.77;99076.20;105772;1279;96630;-69
2022/07/12 02:29:32;;;;;;;9.50;2.90;;;;;;;12.44;67.87;99078.98;105802;1279;112744;-70
2022/07/12 02:32:07;;;;;;;7.50;3.00;;;;;;;12.46;67.86;99078.11;105816;1279;97026;-69
2022/07/12 02:34:35;;;;;;;11.50;3.30;;;;;;;12.46;67.87;99072.86;105920;1279;107403;-70
2022/07/12 02:37:03;;;;;;;10.90;3.80;;;;;;;12.48;67.89;99075.38;105779;1279;99254;-69
2022/07/12 02:39:31;;;;;;;11.90;3.80;;;;;;;12.47;67.89;99078.58;105845;1279;99251;-69
2022/07/12 02:41:59;;;;;;;9.40;3.40;;;;;;;12.47;68.01;99077.51;105921;1279;112364;-68
2022/07/12 02:44:31;;;;;;;9.40;3.40;;;;;;;12.50;67.97;99075.87;105833;1279;99322;-69
2022/07/12 02:47:01;;;;;;;9.10;3.20;;;;;;;12.52;68.04;99072.89;105787;1279;107423;-67
2022/07/12 02:49:33;;;;;;;8.20;3.60;;;;;;;12.53;68.12;99071.73;105872;1279;99281;-67
2022/07/12 02:52:08;;;;;;;6.70;3.60;;;;;;;12.55;68.09;99071.23;105886;1279;99342;-70
2022/07/12 02:54:36;;;;;;;11.00;3.70;;;;;;;12.56;68.30;99069.35;105918;1279;113341;-71
2022/07/12 02:57:06;;;;;;;10.60;3.80;;;;;;;12.59;68.21;99070.05;105906;1279;99307;-68
2022/07/12 02:59:34;;;;;;;8.00;3.40;;;;;;;12.59;68.13;99068.04;105815;1279;108333;-70
2022/07/12 03:02:04;;;;;;;8.90;3.70;;;;;;;12.61;68.30;99073.41;105797;1279;99245;-66
2022/07/12 03:04:36;;;;;;;7.20;3.20;;;;;;;12.63;68.40;99074.48;105884;1279;96641;-70
2022/07/12 03:07:05;;;;;;;8.20;3.00;;;;;;;12.63;68.29;99073.17;105857;1279;113417;-71
2022/07/12 03:09:33;;;;;;;10.70;4.00;;;;;;;12.62;68.24;99069.04;105982;1279;100385;-71
2022/07/12 03:12:01;;;;;;;8.90;3.70;;;;;;;12.62;68.40;99068.66;105950;1279;108814;-71
2022/07/12 03:14:28;;;;;;;7.20;3.20;;;;;;;12.65;68.37;99066.51;105866;1279;99340;-70
2022/07/12 03:16:58;;;;;;;7.10;3.30;;;;;;;12.67;68.48;99066.36;105875;1281;99827;-72
2022/07/12 03:19:26;;;;;;;6.60;3.50;;;;;;;12.68;68.43;99067.90;105909;1279;112733;-71
2022/07/12 03:21:54;;;;;;;8.90;3.20;;;;;;;12.67;68.42;99071.66;105884;1279;96568;-69
2022/07/12 03:24:22;;;;;;;10.20;3.30;;;;;;;12.68;68.51;99073.52;105903;1279;108225;-69
2022/07/12 03:26:52;;;;;;;6.60;3.20;;;;;;;12.71;68.61;99063.68;105955;1278;99133;-70
2022/07/12 03:29:22;;;;;;;6.10;3.30;;;;;;;12.73;68.42;99069.27;105920;1279;99214;-70
2022/07/12 03:31:50;;;;;;;7.60;2.90;;;;;;;12.72;68.43;99067.52;105927;1279;113164;-71
2022/07/12 03:34:17;;;;;;;13.70;3.70;;;;;;;12.68;68.31;99068.06;105897;1279;99366;-70
2022/07/12 03:36:45;;;;;;;7.40;3.50;;;;;;;12.60;68.40;99075.43;105818;1279;107509;-67
2022/07/12 03:39:13;;;;;;;8.60;4.00;;;;;;;12.58;68.44;99076.13;105808;1279;96632;-65
2022/07/12 03:41:41;;;;;;;11.90;3.90;;;;;;;12.60;68.75;99075.80;105835;1279;99248;-69
2022/07/12 03:44:10;;;;;;;10.00;3.20;;;;;;;12.66;68.79;99077.61;105782;1279;113235;-68
2022/07/12 03:46:38;;;;;;;7.90;3.80;;;;;;;12.70;68.75;99074.48;105799;1279;99257;-70
2022/07/12 03:49:06;;;;;;;6.80;3.70;;;;;;;12.70;68.60;99066.33;104368;1279;1856389;-68
2022/07/12 03:51:36;;;;;;;11.10;4.00;;;;;;;12.71;68.80;99070.32;105769;1279;96653;-67
2022/07/12 03:54:11;;;;;;;9.50;4.30;;;;;;;12.72;68.74;99065.81;105832;1279;99127;-69
2022/07/12 03:59:27;;;;;;;11.00;4.90;;;;;;;12.79;68.87;99069.66;105907;1279;99324;-68
2022/07/12 04:01:55;;;;;;;8.90;4.40;;;;;;;12.82;68.94;99072.41;105879;1279;106635;-68
2022/07/12 04:04:26;;;;;;;9.00;4.00;;;;;;;12.86;69.01;99076.59;105876;1279;99233;-71
2022/07/12 04:06:56;;;;;;;9.30;4.30;;;;;;;12.88;68.87;99080.13;105827;1279;99451;-67
2022/07/12 04:09:26;;;;;;;10.60;4.50;;;;;;;12.89;68.91;99075.56;105848;1279;113487;-68
2022/07/12 04:11:56;;;;;;;8.10;4.60;;;;;;;12.89;68.85;99069.33;105852;1279;98341;-68
2022/07/12 04:14:24;;;;;;;10.70;4.40;;;;;;;12.91;68.98;99069.23;105834;1279;108411;-71
2022/07/12 04:16:53;;;;;;;9.40;4.10;;;;;;;12.92;68.98;99067.35;105830;1279;99228;-70
2022/07/12 04:19:27;;;;;;;12.30;4.80;;;;;;;12.91;69.14;99065.97;105852;1279;99922;-69
2022/07/12 04:22:04;;;;;;;9.10;4.00;;;;;;;12.92;68.91;99062.52;105894;1279;113437;-72
2022/07/12 04:24:32;;;;;;;5.70;3.60;;;;;;;12.93;69.13;99064.55;105829;1279;99357;-70
2022/07/12 04:27:04;;;;;;;9.90;4.20;;;;;;;12.93;69.04;99069.05;105835;1279;107808;-72
2022/07/12 04:29:32;;;;;;;6.80;3.50;;;;;;;12.91;69.00;99072.52;105872;1279;99477;-69
2022/07/12 04:32:00;;;;;;;9.60;4.30;;;;;;;12.89;69.03;99072.71;105894;1279;96742;-70
2022/07/12 04:34:28;;;;;;;12.70;5.10;;;;;;;12.92;69.04;99073.05;105922;1279;113488;-69
2022/07/12 04:36:55;;;;;;;9.90;4.70;;;;;;;12.93;69.10;99070.81;105857;1279;99273;-69
2022/07/12 04:39:23;;;;;;;10.90;4.40;;;;;;;12.97;69.25;99072.10;105843;1279;106206;-69
2022/07/12 04:41:52;;;;;;;16.40;5.00;;;;;;;13.02;69.18;99071.52;105791;1279;99212;-67
2022/07/12 04:44:21;;;;;;;7.70;4.00;;;;;;;13.04;69.00;99075.11;105774;1279;97698;-67
2022/07/12 04:46:49;;;;;;;11.40;4.40;;;;;;;13.04;69.22;99070.14;105785;1279;115766;-68
2022/07/12 04:49:20;;;;;;;12.20;4.50;;;;;;;13.05;69.20;99072.27;105797;1279;99313;-66
2022/07/12 04:51:48;;;;;;;15.40;5.10;;;;;;;13.08;69.22;99074.77;105815;1279;108434;-67
2022/07/12 04:54:16;;;;;;;9.90;4.20;;;;;;;13.07;69.16;99080.31;105837;1279;97914;-66
2022/07/12 04:56:45;;;;;;;9.20;4.60;;;;;;;13.08;69.35;99075.44;105843;1279;99139;-65
2022/07/12 04:59:14;;;;;;;9.50;4.00;;;;;;;13.11;69.30;99069.01;105824;1279;112529;-66
2022/07/12 05:01:45;;;;;;;10.40;4.10;;;;;;;13.15;69.28;99070.10;105817;1279;99783;-67
2022/07/12 05:04:16;;;;;;;11.40;4.70;;;;;;;13.18;69.23;99072.70;105825;1279;108299;-65
2022/07/12 05:06:44;;;;;;;11.30;4.70;;;;;;;13.20;69.25;99070.91;105916;1279;99914;-66
2022/07/12 05:09:14;;;;;;;13.20;4.70;;;;;;;13.24;69.42;99064.84;105923;1279;99277;-69
2022/07/12 05:11:42;;;;;;;11.80;5.10;;;;;;;13.33;69.51;99069.96;105920;1279;112672;-68
2022/07/12 05:14:10;;;;;;;10.20;4.70;;;;;;;13.41;69.46;99070.59;105879;1279;98967;-67
2022/07/12 05:16:42;;;;;;;7.70;4.10;;;;;;;13.47;69.43;99073.10;105810;1279;107767;-66
2022/07/12 05:19:12;;;;;;;10.50;4.30;;;;;;;13.53;69.49;99073.67;105797;1279;99200;-66
2022/07/12 05:21:44;;;;;;;10.50;4.50;;;;;;;13.61;69.49;99080.02;105835;1279;99326;-68
2022/07/12 05:24:17;;;;;;;10.70;4.60;;;;;;;13.65;69.27;99073.02;105888;1279;113389;-68
2022/07/12 05:26:45;;;;;;;9.70;3.90;;;;;;;13.69;69.40;99071.93;105880;1279;99125;-69
2022/07/12 05:29:13;;;;;;;6.80;3.50;;;;;;;13.75;69.50;99072.55;105830;1279;108371;-67
2022/07/12 05:31:41;;;;;;;8.00;3.80;;;;;;;13.78;69.35;99068.59;105918;1279;99354;-71
2022/07/12 05:34:08;;;;;;;8.70;4.00;;;;;;;13.79;69.43;99072.90;105924;1278;99308;-69
2022/07/12 05:36:36;;;;;;;10.80;3.90;;;;;;;13.81;69.38;99068.34;105816;1279;113417;-69
2022/07/12 05:39:09;;;;;;;6.90;3.50;;;;;;;13.87;69.51;99067.48;105840;1280;99219;-68
2022/07/12 05:41:37;;;;;;;9.00;3.40;;;;;;;13.94;69.42;99067.52;105945;1279;107438;-68
2022/07/12 05:44:05;;;;;;;9.90;3.70;;;;;;;14.01;69.52;99071.77;105808;1279;96652;-70
2022/07/12 05:46:37;;;;;;;10.40;3.80;;;;;;;14.12;69.55;99068.69;105835;1279;99352;-72
2022/07/12 05:49:05;;;;;;;9.20;3.70;;;;;;;14.20;69.50;99065.16;105971;1278;111897;-71
2022/07/12 05:54:22;;;;;;;8.00;3.70;;;;;;;14.28;69.39;99074.77;105864;1278;108107;-68
2022/07/12 05:56:52;;;;;;;9.80;3.50;;;;;;;14.32;69.42;99070.98;105883;1279;99186;-70
2022/07/12 05:59:23;;;;;;;6.90;3.80;;;;;;;14.38;69.40;99072.65;105859;1279;99226;-66
2022/07/12 06:01:53;;;;;;;5.50;3.10;;;;;;;14.33;69.30;99074.17;105868;1279;113301;-66
2022/07/12 06:04:21;;;;;;;6.40;3.40;;;;;;;14.32;69.32;99074.99;105893;1279;99371;-66
2022/07/12 06:06:51;;;;;;;5.50;2.60;;;;;;;14.33;69.31;99077.96;105831;1279;108469;-68
2022/07/12 06:09:18;;;;;;;8.60;3.10;;;;;;;14.30;69.41;99076.17;105809;1279;99343;-68
2022/07/12 06:11:48;;;;;;;7.50;3.10;;;;;;;14.27;69.49;99078.02;105889;1279;99202;-68
2022/07/12 06:14:16;;;;;;;7.10;2.70;;;;;;;14.25;69.52;99076.78;105894;1279;113306;-67
2022/07/12 06:16:44;;;;;;;7.80;3.20;;;;;;;14.20;69.45;99072.95;105838;1279;99278;-68
2022/07/12 06:19:12;;;;;;;5.90;3.10;;;;;;;14.17;69.56;99071.31;105816;1278;109134;-66
2022/07/12 06:21:40;;;;;;;6.10;2.80;;;;;;;14.14;69.44;99063.30;105887;1279;96687;-67
2022/07/12 06:24:10;;;;;;;8.00;3.30;;;;;;;14.12;69.45;99062.95;105927;1279;96636;-69
2022/07/12 06:26:40;;;;;;;5.70;2.60;;;;;;;14.11;69.51;99061.98;105929;1279;113179;-68
2022/07/12 06:29:12;;;;;;;3.80;2.40;;;;;;;14.12;69.54;99057.75;105973;1279;99302;-68
2022/07/12 06:31:40;;;;;;;7.10;2.90;;;;;;;14.13;69.40;99060.03;105959;1279;107338;-67
2022/07/12 06:34:12;;;;;;;5.80;2.60;;;;;;;14.13;69.46;99059.61;105937;1279;99240;-66
2022/07/12 06:36:43;;;;;;;6.20;2.70;;;;;;;14.17;69.44;99052.73;105844;1279;99300;-68
2022/07/12 06:39:15;;;;;;;9.00;2.90;;;;;;;14.26;69.51;99056.91;105876;1279;113289;-66
2022/07/12 06:41:45;;;;;;;5.80;2.40;;;;;;;14.36;69.50;99056.09;105888;1279;96735;-69
2022/07/12 06:44:13;;;;;;;6.60;2.60;;;;;;;14.42;69.43;99054.45;105756;1279;108168;-67
2022/07/12 06:46:44;;;;;;;7.70;3.20;;;;;;;14.51;69.49;99056.82;105867;1279;99327;-68
2022/07/12 06:49:16;;;;;;;8.50;3.10;;;;;;;14.63;69.40;99060.30;105963;1278;96540;-68
2022/07/12 06:51:46;;;;;;;3.70;2.40;;;;;;;14.79;69.53;99053.33;105890;1278;113368;-68
2022/07/12 06:54:15;;;;;;;7.40;2.70;;;;;;;15.03;69.44;99054.02;105988;1278;99254;-69
2022/07/12 06:56:43;;;;;;;6.90;2.70;;;;;;;15.26;69.50;99053.17;105950;1278;108333;-67
2022/07/12 06:59:13;;;;;;;3.00;2.00;;;;;;;15.46;69.41;99063.52;105825;1278;99829;-67
2022/07/12 07:01:44;;;;;;;9.10;2.20;;;;;;;15.59;69.37;99069.80;105866;1278;98823;-68
2022/07/12 07:04:15;;;;;;;4.80;1.90;;;;;;;15.65;69.22;99074.08;105899;1278;113372;-69
2022/07/12 07:06:47;;;;;;;3.70;2.00;;;;;;;15.63;69.32;99076.54;105907;1279;99260;-68
2022/07/12 07:09:16;;;;;;;4.50;2.00;;;;;;;15.66;69.29;99077.07;105847;1279;108090;-67
2022/07/12 07:11:46;;;;;;;3.20;1.80;;;;;;;15.75;69.10;99085.31;105821;1279;99349;-67
2022/07/12 07:14:14;;;;;;;4.60;2.00;;;;;;;15.77;69.11;99082.80;105885;1278;96671;-69
2022/07/12 07:16:42;;;;;;;5.00;1.70;;;;;;;15.87;68.95;99082.45;105971;1279;114070;-68
2022/07/12 07:19:12;;;;;;;6.10;1.80;;;;;;;15.77;69.05;99082.80;105872;1279;99357;-68
2022/07/12 07:21:44;;;;;;;4.80;1.90;;;;;;;15.64;68.96;99085.25;105893;1279;108409;-68
2022/07/12 07:24:14;;;;;;;5.70;1.90;;;;;;;15.59;69.02;99081.63;105839;1279;96580;-67
2022/07/12 07:26:49;;;;;;;4.60;2.00;;;;;;;15.73;68.69;99075.23;105948;1279;99253;-68
2022/07/12 07:32:16;;;;;;;7.90;3.20;;;;;;;16.43;68.71;99064.73;105811;1279;99122;-69
2022/07/12 07:34:46;;;;;;;6.60;1.80;;;;;;;16.43;68.90;99070.86;105806;1278;110494;-68
2022/07/12 07:37:19;;;;;;;2.50;1.70;;;;;;;16.50;68.83;99068.19;105860;1279;99351;-68
2022/07/12 07:39:47;;;;;;;3.90;1.60;;;;;;;16.95;68.25;99065.59;105876;1279;99298;-67
2022/07/12 07:42:17;;;;;;;4.10;1.80;;;;;;;17.43;67.97;99066.03;105859;1279;114250;-69
2022/07/12 07:44:48;;;;;;;4.70;1.80;;;;;;;17.73;67.77;99068.54;105928;1278;99240;-70
2022/07/12 07:47:48;;;;;;;4.10;1.60;;;;;;;18.13;67.76;99070.41;105850;1279;108396;-67
2022/07/12 07:50:40;;;;;;;6.70;1.80;;;;;;;18.26;68.37;99071.55;105815;1279;99314;-68
2022/07/12 07:53:08;;;;;;;2.90;1.70;;;;;;;18.17;68.29;99075.88;105894;1279;99258;-67
2022/07/12 07:55:36;;;;;;;3.70;1.80;;;;;;;18.03;68.19;99075.73;105895;1279;113792;-68
2022/07/12 07:58:05;;;;;;;5.40;1.70;;;;;;;17.84;68.16;99073.91;105868;1280;99795;-66
2022/07/12 08:00:33;;;;;;;3.40;2.00;;;;;;;17.72;67.85;99072.92;105834;1279;108370;-67
2022/07/12 08:03:02;;;;;;;4.60;2.00;;;;;;;17.57;68.25;99072.52;105836;1279;99339;-68
2022/07/12 08:05:30;;;;;;;4.40;2.00;;;;;;;17.58;67.96;99071.88;105885;1280;99252;-69
2022/07/12 08:07:58;;;;;;;5.40;1.80;;;;;;;17.68;67.89;99070.14;105880;1280;113389;-69
2022/07/12 08:10:33;;;;;;;4.60;1.70;;;;;;;17.84;67.51;99068.34;105902;1277;96588;-68
2022/07/12 08:13:05;;;;;;;2.90;1.60;;;;;;;18.55;67.14;99069.81;105828;1279;107797;-68
2022/07/12 08:15:34;;;;;;;3.10;1.50;;;;;;;18.47;67.45;99069.23;105902;1280;99244;-68
2022/07/12 08:18:03;;;;;;;4.60;1.40;;;;;;;18.29;67.66;99068.00;105892;1278;99251;-68
2022/07/12 08:20:34;;;;;;;4.70;1.70;;;;;;;18.14;67.75;99067.80;105918;1281;112653;-69
2022/07/12 08:23:21;;;;;;;5.80;1.60;;;;;;;18.43;67.06;99070.73;105844;1280;99198;-67
2022/07/12 08:25:49;;;;;;;6.30;1.80;;;;;;;19.13;66.44;99063.21;105801;1281;108543;-68
2022/07/12 08:28:19;;;;;;;3.70;1.70;;;;;;;19.40;66.85;99057.90;105885;1279;99949;-68
2022/07/12 08:30:50;;;;;;;10.90;2.50;;;;;;;19.37;66.88;99059.94;105937;1279;100475;-66
2022/07/12 08:33:18;;;;;;;5.40;1.60;;;;;;;19.17;66.91;99059.48;105828;1278;113418;-65
2022/07/12 08:35:49;;;;;;;5.10;1.80;;;;;;;18.94;66.99;99066.21;105920;1278;100277;-67
2022/07/12 08:38:19;;;;;;;3.10;1.60;;;;;;;18.67;66.80;99069.48;105876;1278;108338;-71
2022/07/12 08:40:49;;;;;;;7.40;1.80;;;;;;;18.42;66.91;99075.84;105877;1278;99940;-67
2022/07/12 08:43:20;;;;;;;7.40;1.50;;;;;;;18.32;66.92;99078.48;105703;1278;96631;-68
2022/07/12 08:46:06;;;;;;;2.90;1.80;;;;;;;18.15;66.74;99078.30;105816;1281;113300;-68
2022/07/12 08:48:41;;;;;;;5.50;1.50;;;;;;;17.97;66.49;99072.62;105817;1278;99234;-67
2022/07/12 08:51:21;;;;;;;4.10;1.50;;;;;;;17.89;66.48;99073.05;105824;1281;107665;-66
2022/07/12 08:54:10;;;;;;;7.60;2.20;;;;;;;17.63;66.30;99074.45;105821;1280;99281;-67
2022/07/12 08:56:44;;;;;;;4.30;1.90;;;;;;;17.54;66.32;99071.59;105915;1280;99151;-67
2022/07/12 08:59:15;;;;;;;2.30;1.40;;;;;;;18.36;65.97;99073.37;105816;1279;113649;-66
2022/07/12 09:01:53;;;;;;;5.50;2.00;;;;;;;18.81;66.07;99075.17;105859;1280;99222;-67
2022/07/12 09:04:28;;;;;;;1.50;1.30;;;;;;;19.44;65.93;99079.52;105780;1279;107948;-67
2022/07/12 09:06:56;;;;;;;2.00;0.90;;;;;;;20.05;65.37;99084.05;105828;1281;99120;-65
2022/07/12 09:09:33;;;;;;;3.20;1.00;;;;;;;20.05;65.20;99077.12;105802;1278;99179;-68
2022/07/12 09:12:05;;;;;;;4.30;1.10;;;;;;;19.71;65.59;99082.32;105931;1279;112732;-70
2022/07/12 09:14:33;;;;;;;2.70;1.20;;;;;;;19.45;65.66;99079.58;105875;1279;99400;-68
2022/07/12 09:17:13;;;;;;;4.60;1.20;;;;;;;19.16;65.64;99079.54;105804;1281;108401;-66
2022/07/12 09:19:55;;;;;;;4.20;1.40;;;;;;;18.96;65.73;99081.09;105782;1281;99268;-68
2022/07/12 09:22:24;;;;;;;1.80;0.90;;;;;;;19.38;65.09;99073.52;105827;1280;99258;-68
2022/07/12 09:24:55;;;;;;;4.20;1.40;;;;;;;19.60;65.05;99068.38;105813;1281;112887;-67
2022/07/12 09:27:26;;;;;;;3.60;1.90;;;;;;;19.75;65.31;99066.02;105938;1278;97716;-67
2022/07/12 09:29:55;;;;;;;3.10;1.50;;;;;;;19.70;65.36;99066.61;105825;1278;108302;-67
2022/07/12 09:38:11;;;;;;;3.40;1.30;;;;;;;21.29;64.76;99050.07;105801;1278;113058;-66
2022/07/12 09:40:44;;;;;;;8.20;1.90;;;;;;;21.72;64.67;99050.28;105800;1277;99180;-67
2022/07/12 09:43:16;;;;;;;1.90;1.10;;;;;;;22.19;64.68;99055.59;105757;1277;107787;-68
2022/07/12 09:45:53;;;;;;;3.80;1.10;;;;;;;22.47;64.43;99046.27;105823;1278;99353;-67
2022/07/12 09:48:25;;;;;;;2.60;1.20;;;;;;;22.47;64.00;99045.46;105805;1281;99341;-67
2022/07/12 09:50:58;;;;;;;1.40;1.10;;;;;;;22.19;64.01;99050.29;105858;1278;113181;-67
2022/07/12 09:53:38;;;;;;;2.80;1.20;;;;;;;21.99;64.25;99037.66;105778;1281;97094;-67
2022/07/12 09:56:09;;;;;;;1.80;1.10;;;;;;;22.00;63.72;99034.42;105770;1281;107680;-67
2022/07/12 09:58:57;;;;;;;5.80;1.30;;;;;;;22.05;63.89;99030.11;105796;1278;97707;-66
2022/07/12 10:01:28;;;;;;;4.80;1.20;;;;;;;22.21;63.84;99029.02;105862;1278;99212;-67
2022/07/12 10:04:00;;;;;;;2.80;1.20;;;;;;;22.34;63.64;99025.83;105827;1278;113305;-65
2022/07/12 10:06:39;;;;;;;1.70;1.20;;;;;;;22.30;63.20;99020.69;105765;1278;99252;-68
2022/07/12 10:09:11;;;;;;;2.60;1.20;;;;;;;21.94;62.94;99011.59;105791;1278;109177;-68
2022/07/12 10:11:44;;;;;;;3.70;1.40;;;;;;;21.69;63.06;99010.96;105769;1277;97813;-68
2022/07/12 10:14:36;;;;;;;4.10;1.50;;;;;;;21.26;62.58;99010.91;105859;1281;99362;-65
2022/07/12 10:17:09;;;;;;;4.50;1.50;;;;;;;21.00;62.51;99009.88;105876;1281;113379;-66
2022/07/12 10:19:43;;;;;;;3.50;1.60;;;;;;;20.95;62.73;99008.19;105833;1279;99351;-66
2022/07/12 10:22:23;;;;;;;5.30;1.70;;;;;;;21.02;62.40;99007.83;105814;1280;108087;-67
2022/07/12 10:24:56;;;;;;;3.30;1.50;;;;;;;21.08;62.55;99008.90;105746;1277;99276;-67
2022/07/12 10:27:25;;;;;;;3.30;1.40;;;;;;;21.01;61.74;99016.27;105850;1277;99170;-67
2022/07/12 10:30:16;;;;;;;4.90;1.70;;;;;;;20.76;61.68;99028.64;105705;1281;113289;-67
2022/07/12 10:32:48;;;;;;;3.50;1.30;;;;;;;20.40;61.50;99023.85;105824;1280;99248;-68
2022/07/12 10:35:23;;;;;;;3.20;2.00;;;;;;;19.83;61.25;99017.31;105800;1280;107771;-68
2022/07/12 10:38:15;;;;;;;4.50;1.60;;;;;;;19.22;60.97;99030.67;105847;1278;99940;-68
2022/07/12 10:40:46;;;;;;;3.10;1.40;;;;;;;18.64;61.18;99030.80;105758;1278;99314;-67
2022/07/12 10:43:17;;;;;;;4.30;1.70;;;;;;;18.37;61.27;99030.42;105579;1280;114258;-65
2022/07/12 10:45:47;;;;;;;4.70;1.60;;;;;;;18.30;61.36;99028.60;105694;1278;99102;-66
2022/07/12 10:48:14;;;;;;;1.90;1.50;;;;;;;18.28;61.34;99025.62;105686;1277;107742;-66
2022/07/12 10:50:43;;;;;;;3.70;1.40;;;;;;;18.27;61.40;99019.40;105598;1278;99262;-65
2022/07/12 10:53:25;;;;;;;3.10;1.10;;;;;;;18.37;61.44;99017.73;105728;1278;99237;-69
2022/07/12 10:56:09;;;;;;;5.60;1.40;;;;;;;18.48;61.48;99016.11;105819;1277;113491;-65
2022/07/12 10:58:41;;;;;;;1.70;1.40;;;;;;;18.62;61.43;99017.13;105817;1278;99256;-68
2022/07/12 11:01:12;;;;;;;3.30;1.20;;;;;;;18.75;61.31;99008.61;105787;1278;108394;-68
2022/07/12 11:03:45;;;;;;;1.70;1.60;;;;;;;18.82;61.21;99007.67;105781;1277;99248;-64
2022/07/12 11:06:16;;;;;;;2.80;1.60;;;;;;;18.91;61.15;99002.77;105730;1277;99220;-66
2022/07/12 11:08:48;;;;;;;1.40;1.30;;;;;;;19.01;61.32;99002.46;105687;1277;113244;-67
2022/07/12 11:11:17;;;;;;;4.90;1.40;;;;;;;19.12;61.21;99001.39;105670;1278;99326;-69
2022/07/12 11:13:46;;;;;;;3.00;1.60;;;;;;;19.20;61.10;98998.75;105721;1278;107758;-69
2022/07/12 11:16:15;;;;;;;2.50;1.50;;;;;;;19.21;60.95;98998.79;105800;1278;99428;-69
2022/07/12 11:18:44;;;;;;;3.50;1.70;;;;;;;19.24;61.01;98995.12;105857;1277;99394;-70
2022/07/12 11:21:12;;;;;;;4.60;2.10;;;;;;;19.31;61.18;98991.04;105843;1278;112686;-71
2022/07/12 11:23:41;;;;;;;4.00;1.80;;;;;;;19.42;61.16;98992.77;105892;1277;97975;-73
2022/07/12 11:26:11;;;;;;;6.90;2.10;;;;;;;19.45;60.92;98984.44;105790;1278;107757;-72
2022/07/12 11:28:41;;;;;;;4.80;1.60;;;;;;;19.49;61.08;98984.91;105788;1278;97743;-72
2022/07/12 11:31:16;;;;;;;2.20;1.30;;;;;;;19.61;61.06;98975.46;105748;1277;99313;-74
2022/07/12 11:33:48;;;;;;;3.90;1.20;;;;;;;19.71;61.02;98974.77;105733;1280;112736;-75
2022/07/12 11:36:18;;;;;;;3.50;1.60;;;;;;;19.81;60.90;98967.17;105812;1278;99939;-72
2022/07/12 11:38:46;;;;;;;5.10;1.40;;;;;;;19.88;60.82;98966.09;105757;1277;107787;-75
2022/07/12 11:41:15;;;;;;;1.00;0.90;;;;;;;19.93;60.66;98963.19;105820;1278;99250;-75
2022/07/12 11:43:43;;;;;;;1.80;1.30;;;;;;;19.94;60.55;98962.55;105882;1278;99234;-78
2022/07/12 11:46:12;;;;;;;4.70;1.90;;;;;;;19.91;60.48;98970.55;105653;1280;111353;-77
2022/07/12 11:48:42;;;;;;;4.20;1.70;;;;;;;19.86;60.51;98966.59;105819;1277;97455;-76
2022/07/12 11:51:12;;;;;;;3.90;1.50;;;;;;;19.91;60.61;98965.89;105789;1278;107666;-76
2022/07/12 11:53:40;;;;;;;2.50;1.20;;;;;;;19.99;60.58;98956.75;105906;1278;99320;-77